Terminal Aerodrome Forecast
Issued by NWS Pueblo, CO

Home | Current Version | Previous Version | Text Only | Print | Product List | Glossary On
Versions: 1 2 3 4 5 6 7 8 9 10 11 12 13 14 15 16
000
FTUS45 KPUB 220109 AAA
TAFPUB
TAF AMD
KPUB 220109Z 2201/2224 21009KT P6SM SKC
     FM220700 26006KT P6SM SKC
     FM221400 15006KT P6SM SKC
     FM221700 20018G28KT P6SM SCT250
     FM222000 20025G38KT P6SM FEW090 SCT250=

USA.gov is the U.S. government's official web portal to all federal, state and local government web resources and services.